Time;durP1;ratioP1;P1;durP2;ratioP2;P2;SDS_P1;SDS_P2;PMS_P1;PMS_P2;Temp;Humidity;BMP_temperature;BMP_pressure;BME280_temperature;BME280_humidity;BME280_pressure;Samples;Min_cycle;Max_cycle;Signal;HPM_P1;HPM_P2
2022/05/25 00:00:05;;;;;;;;;;;11.80;99.90;;;;;;5070201;28;19964;-74
2022/05/25 00:02:31;;;;;;;;;;;11.80;99.90;;;;;;5069440;28;19993;-74
2022/05/25 00:04:56;;;;;;;;;;;11.80;99.90;;;;;;5050818;28;19990;-74
2022/05/25 00:07:22;;;;;;;;;;;11.80;99.90;;;;;;5055334;28;19908;-74
2022/05/25 00:09:49;;;;;;;;;;;11.70;99.90;;;;;;5050898;28;19909;-74
2022/05/25 00:12:15;;;;;;;;;;;11.70;99.90;;;;;;5050236;28;19947;-74
2022/05/25 00:14:40;;;;;;;;;;;11.70;99.90;;;;;;5050212;28;20348;-74
2022/05/25 00:17:06;;;;;;;;;;;11.70;99.90;;;;;;5054206;28;19979;-74
2022/05/25 00:22:16;;;;;;;;;;;11.50;99.90;;;;;;5053832;28;19963;-74
2022/05/25 00:24:41;;;;;;;;;;;11.50;99.90;;;;;;5051795;28;19913;-74
2022/05/25 00:27:07;;;;;;;;;;;11.40;99.90;;;;;;5052944;28;19915;-74
2022/05/25 00:29:32;;;;;;;;;;;11.40;99.90;;;;;;5053983;28;19943;-74
2022/05/25 00:31:59;;;;;;;;;;;11.40;99.90;;;;;;5053857;28;19912;-74
2022/05/25 00:34:24;;;;;;;;;;;11.50;99.90;;;;;;5056205;28;19920;-74
2022/05/25 00:36:50;;;;;;;;;;;11.60;99.90;;;;;;5054071;28;19909;-74
2022/05/25 00:39:15;;;;;;;;;;;11.70;99.90;;;;;;5053909;28;19927;-74
2022/05/25 00:41:41;;;;;;;;;;;11.70;99.90;;;;;;5053286;28;19913;-74
2022/05/25 00:44:08;;;;;;;;;;;11.80;99.90;;;;;;5053254;28;19974;-74
2022/05/25 00:46:35;;;;;;;;;;;11.80;99.90;;;;;;5053972;28;19913;-74
2022/05/25 00:49:03;;;;;;;;;;;11.80;99.90;;;;;;5053569;28;19917;-74
2022/05/25 00:51:30;;;;;;;;;;;11.80;99.90;;;;;;5053289;28;19944;-74
2022/05/25 00:53:58;;;;;;;;;;;11.80;99.90;;;;;;5052970;28;19909;-74
2022/05/25 00:56:25;;;;;;;;;;;11.90;99.90;;;;;;5053576;28;19916;-74
2022/05/25 00:58:57;;;;;;;;;;;11.80;99.90;;;;;;5053544;28;19952;-74
2022/05/25 01:01:24;;;;;;;;;;;11.90;99.90;;;;;;5052999;28;20378;-74
2022/05/25 01:03:49;;;;;;;;;;;11.90;99.90;;;;;;5054921;28;19916;-74
2022/05/25 01:06:38;;;;;;;;;;;11.80;99.90;;;;;;5060250;28;20358;-74
2022/05/25 01:09:10;;;;;;;;;;;11.80;99.90;;;;;;5048059;28;20250;-74
2022/05/25 01:11:47;;;;;;;;;;;11.80;99.90;;;;;;5052995;28;19909;-74
2022/05/25 01:14:19;;;;;;;;;;;11.80;99.90;;;;;;5052601;28;20378;-74
2022/05/25 01:16:51;;;;;;;;;;;11.70;99.90;;;;;;5053326;28;20011;-74
2022/05/25 01:19:34;;;;;;;;;;;11.70;99.90;;;;;;5052983;28;19912;-74
2022/05/25 01:22:10;;;;;;;;;;;11.70;99.90;;;;;;5051628;28;20278;-74
2022/05/25 01:24:35;;;;;;;;;;;11.70;99.90;;;;;;5052483;28;19939;-74
2022/05/25 01:27:20;;;;;;;;;;;11.70;99.90;;;;;;5052250;28;19909;-74
2022/05/25 01:30:04;;;;;;;;;;;11.70;99.90;;;;;;5053117;28;20336;-74
2022/05/25 01:32:32;;;;;;;;;;;11.70;99.90;;;;;;5052632;28;19991;-74
2022/05/25 01:34:57;;;;;;;;;;;11.60;99.90;;;;;;5051694;28;19909;-74
2022/05/25 01:37:35;;;;;;;;;;;11.50;99.90;;;;;;5057876;28;20362;-74
2022/05/25 01:40:06;;;;;;;;;;;11.60;99.90;;;;;;5052917;28;20332;-74
2022/05/25 01:42:39;;;;;;;;;;;11.50;99.90;;;;;;5052186;28;19909;-74
2022/05/25 01:45:06;;;;;;;;;;;11.30;99.90;;;;;;5051868;28;19962;-74
2022/05/25 01:47:33;;;;;;;;;;;11.30;99.90;;;;;;5051783;28;20321;-74
2022/05/25 01:50:07;;;;;;;;;;;11.20;99.90;;;;;;5052774;28;20361;-74
2022/05/25 01:52:36;;;;;;;;;;;11.20;99.90;;;;;;5052179;28;20264;-74
2022/05/25 01:55:05;;;;;;;;;;;11.20;99.90;;;;;;5051763;28;20346;-74
2022/05/25 01:57:32;;;;;;;;;;;11.10;99.90;;;;;;5052547;28;20263;-74
2022/05/25 01:59:57;;;;;;;;;;;11.10;99.90;;;;;;5052523;28;19908;-74
2022/05/25 02:05:11;;;;;;;;;;;11.20;99.90;;;;;;5051230;28;19970;-74
2022/05/25 02:07:51;;;;;;;;;;;11.10;99.90;;;;;;5052323;28;19909;-74
2022/05/25 02:10:21;;;;;;;;;;;11.10;99.90;;;;;;5052413;28;20329;-74
2022/05/25 02:12:50;;;;;;;;;;;11.00;99.90;;;;;;5051701;28;19948;-74
2022/05/25 02:15:15;;;;;;;;;;;11.00;99.90;;;;;;5051795;28;19908;-74
2022/05/25 02:17:45;;;;;;;;;;;11.00;99.90;;;;;;5052342;28;19909;-74
2022/05/25 02:20:20;;;;;;;;;;;10.90;99.90;;;;;;5050879;28;19909;-74
2022/05/25 02:22:48;;;;;;;;;;;10.90;99.90;;;;;;5051457;28;19913;-74
2022/05/25 02:25:27;;;;;;;;;;;10.90;99.90;;;;;;5051079;28;19924;-74
2022/05/25 02:28:10;;;;;;;;;;;10.90;99.90;;;;;;5051910;28;19909;-74
2022/05/25 02:30:37;;;;;;;;;;;10.80;99.90;;;;;;5051884;28;19909;-74
2022/05/25 02:33:13;;;;;;;;;;;10.80;99.90;;;;;;5051244;28;19917;-74
2022/05/25 02:35:40;;;;;;;;;;;10.70;99.90;;;;;;5050901;28;19988;-74
2022/05/25 02:38:06;;;;;;;;;;;10.70;99.90;;;;;;5053399;28;19953;-74
2022/05/25 02:40:32;;;;;;;;;;;10.60;99.90;;;;;;5051699;28;19962;-74
2022/05/25 02:42:58;;;;;;;;;;;10.60;99.90;;;;;;5050869;28;20465;-74
2022/05/25 02:45:23;;;;;;;;;;;10.60;99.90;;;;;;5051051;28;19912;-74
2022/05/25 02:47:50;;;;;;;;;;;10.60;99.90;;;;;;5051653;28;19919;-74
2022/05/25 02:50:15;;;;;;;;;;;10.60;99.90;;;;;;5051283;28;19967;-74
2022/05/25 02:52:41;;;;;;;;;;;10.60;99.90;;;;;;5050965;28;19940;-74
2022/05/25 02:55:07;;;;;;;;;;;10.50;99.90;;;;;;5050784;28;19908;-74
2022/05/25 02:57:34;;;;;;;;;;;10.50;99.90;;;;;;5050686;28;20550;-74
2022/05/25 03:00:00;;;;;;;;;;;10.50;99.90;;;;;;5051521;28;19909;-74
2022/05/25 03:02:26;;;;;;;;;;;10.50;99.90;;;;;;5051012;28;20011;-74
2022/05/25 03:04:51;;;;;;;;;;;10.50;99.90;;;;;;5050099;28;19912;-74
2022/05/25 03:07:17;;;;;;;;;;;10.60;99.90;;;;;;5051274;28;19909;-74
2022/05/25 03:09:43;;;;;;;;;;;10.60;99.90;;;;;;5051234;28;19963;-74
2022/05/25 03:12:10;;;;;;;;;;;10.50;99.90;;;;;;5050867;28;20400;-74
2022/05/25 03:14:36;;;;;;;;;;;10.50;99.90;;;;;;5050855;28;19909;-74
2022/05/25 03:17:08;;;;;;;;;;;10.50;99.90;;;;;;5052769;28;19988;-74
2022/05/25 03:19:35;;;;;;;;;;;10.50;99.90;;;;;;5051072;28;19909;-74
2022/05/25 03:22:00;;;;;;;;;;;10.50;99.90;;;;;;5049412;28;19908;-74
2022/05/25 03:24:26;;;;;;;;;;;10.50;99.90;;;;;;5050390;28;19920;-74
2022/05/25 03:26:51;;;;;;;;;;;10.50;99.90;;;;;;5051087;28;20358;-74
2022/05/25 03:29:18;;;;;;;;;;;10.50;99.90;;;;;;5051221;28;20400;-74
2022/05/25 03:31:43;;;;;;;;;;;10.50;99.90;;;;;;5050727;28;19908;-74
2022/05/25 03:34:09;;;;;;;;;;;10.50;99.90;;;;;;5051063;28;19915;-74
2022/05/25 03:36:34;;;;;;;;;;;10.50;99.90;;;;;;5055520;28;19913;-74
2022/05/25 03:39:00;;;;;;;;;;;10.50;99.90;;;;;;5052888;28;19909;-74
2022/05/25 03:41:25;;;;;;;;;;;10.50;99.90;;;;;;5052477;28;20012;-74
2022/05/25 03:43:52;;;;;;;;;;;10.40;99.90;;;;;;5051683;28;19913;-74
2022/05/25 03:46:17;;;;;;;;;;;10.40;99.90;;;;;;5050558;28;19932;-74
2022/05/25 03:48:43;;;;;;;;;;;10.40;99.90;;;;;;5052522;28;19921;-74
2022/05/25 03:51:09;;;;;;;;;;;10.50;99.90;;;;;;5053717;28;19955;-74
2022/05/25 03:53:35;;;;;;;;;;;10.50;99.90;;;;;;5053701;28;19913;-74
2022/05/25 03:56:00;;;;;;;;;;;10.60;99.90;;;;;;5054711;28;20420;-74
2022/05/25 03:58:26;;;;;;;;;;;10.50;99.90;;;;;;5054903;28;19992;-74
2022/05/25 04:00:51;;;;;;;;;;;10.50;99.90;;;;;;5054733;28;19908;-74
2022/05/25 04:03:17;;;;;;;;;;;10.50;99.90;;;;;;5053527;28;20278;-74
2022/05/25 04:05:43;;;;;;;;;;;10.40;99.90;;;;;;5059011;28;19912;-74
2022/05/25 04:08:08;;;;;;;;;;;10.30;99.90;;;;;;5053249;28;19957;-74
2022/05/25 04:10:34;;;;;;;;;;;10.30;99.90;;;;;;5054626;28;19920;-74
2022/05/25 04:13:01;;;;;;;;;;;10.40;99.90;;;;;;5054013;28;19915;-74
2022/05/25 04:15:28;;;;;;;;;;;10.30;99.90;;;;;;5053975;28;19999;-74
2022/05/25 04:17:53;;;;;;;;;;;10.30;99.90;;;;;;5054425;28;19909;-74
2022/05/25 04:20:19;;;;;;;;;;;10.40;99.90;;;;;;5054552;28;19920;-74
2022/05/25 04:22:45;;;;;;;;;;;10.40;99.90;;;;;;5056168;28;19913;-74
2022/05/25 04:25:12;;;;;;;;;;;10.50;99.90;;;;;;5054430;28;19920;-74
2022/05/25 04:27:38;;;;;;;;;;;10.50;99.90;;;;;;5055309;28;19909;-74
2022/05/25 04:30:05;;;;;;;;;;;10.60;99.90;;;;;;5054931;28;20336;-74
2022/05/25 04:32:32;;;;;;;;;;;10.60;99.90;;;;;;5054660;28;19912;-74
2022/05/25 04:34:58;;;;;;;;;;;10.70;99.90;;;;;;5053857;28;19920;-74
2022/05/25 04:40:09;;;;;;;;;;;10.80;99.90;;;;;;5055145;28;19924;-74
2022/05/25 04:42:34;;;;;;;;;;;10.80;99.90;;;;;;5054181;28;19912;-74
2022/05/25 04:45:00;;;;;;;;;;;10.80;99.90;;;;;;5054145;28;19912;-74
2022/05/25 04:47:30;;;;;;;;;;;10.80;99.90;;;;;;5053572;28;19909;-74
2022/05/25 04:49:56;;;;;;;;;;;10.90;99.90;;;;;;5054178;28;20012;-74
2022/05/25 04:52:21;;;;;;;;;;;11.00;99.90;;;;;;5052315;28;19999;-74
2022/05/25 04:54:47;;;;;;;;;;;11.00;99.90;;;;;;5053779;28;19909;-75
2022/05/25 04:57:22;;;;;;;;;;;11.00;99.90;;;;;;5054341;28;19960;-74
2022/05/25 04:59:51;;;;;;;;;;;11.10;99.90;;;;;;5053995;28;19909;-74
2022/05/25 05:02:17;;;;;;;;;;;11.10;99.90;;;;;;5052736;28;20311;-74
2022/05/25 05:04:43;;;;;;;;;;;11.00;99.90;;;;;;5057268;28;20008;-74
2022/05/25 05:07:09;;;;;;;;;;;11.00;99.90;;;;;;5053752;28;19909;-74
2022/05/25 05:09:35;;;;;;;;;;;11.00;99.90;;;;;;5053866;28;19913;-74
2022/05/25 05:12:01;;;;;;;;;;;11.10;99.90;;;;;;5053562;28;19916;-74
2022/05/25 05:14:26;;;;;;;;;;;11.10;99.90;;;;;;5057260;28;20365;-74
2022/05/25 05:16:58;;;;;;;;;;;11.20;99.90;;;;;;5073127;28;19912;-74
2022/05/25 05:19:24;;;;;;;;;;;11.20;99.90;;;;;;5072689;28;20308;-74
2022/05/25 05:21:50;;;;;;;;;;;11.20;99.90;;;;;;5072451;28;19987;-74
2022/05/25 05:24:16;;;;;;;;;;;11.30;99.90;;;;;;5072239;28;20011;-74
2022/05/25 05:26:41;;;;;;;;;;;11.50;99.90;;;;;;5073245;28;19908;-74
2022/05/25 05:29:07;;;;;;;;;;;11.70;99.90;;;;;;5072838;28;20396;-75
2022/05/25 05:31:33;;;;;;;;;;;11.80;99.90;;;;;;5074253;28;19912;-74
2022/05/25 05:33:59;;;;;;;;;;;11.90;99.90;;;;;;5061944;28;20007;-74
2022/05/25 05:36:26;;;;;;;;;;;11.90;99.90;;;;;;5059046;28;19913;-74
2022/05/25 05:39:00;;;;;;;;;;;11.90;99.90;;;;;;5052676;28;19909;-74
2022/05/25 05:41:27;;;;;;;;;;;12.00;99.90;;;;;;5053185;28;20428;-75
2022/05/25 05:43:52;;;;;;;;;;;12.10;99.90;;;;;;5052781;28;19940;-74
2022/05/25 05:46:19;;;;;;;;;;;12.20;99.90;;;;;;5053572;28;19923;-74
2022/05/25 05:48:45;;;;;;;;;;;12.30;99.90;;;;;;5053614;28;19917;-74
2022/05/25 05:51:11;;;;;;;;;;;12.40;99.90;;;;;;5053083;28;19909;-75
2022/05/25 05:53:37;;;;;;;;;;;12.40;99.90;;;;;;5051951;28;19956;-75
2022/05/25 05:56:03;;;;;;;;;;;12.50;99.90;;;;;;5053119;28;20273;-75
2022/05/25 05:58:29;;;;;;;;;;;12.50;99.90;;;;;;5052987;28;19913;-75
2022/05/25 06:00:55;;;;;;;;;;;12.60;99.90;;;;;;5053594;28;19923;-75
2022/05/25 06:03:20;;;;;;;;;;;12.70;99.90;;;;;;5051883;28;19991;-75
2022/05/25 06:05:46;;;;;;;;;;;12.90;99.90;;;;;;5054427;28;20377;-75
2022/05/25 06:08:14;;;;;;;;;;;12.90;99.90;;;;;;5057717;28;19956;-75
2022/05/25 06:10:40;;;;;;;;;;;12.90;99.90;;;;;;5052960;28;19932;-75
2022/05/25 06:13:07;;;;;;;;;;;13.10;99.90;;;;;;5050757;28;20378;-75
2022/05/25 06:21:02;;;;;;;;;;;15.10;99.90;;;;;;5072621;28;20430;-73
2022/05/25 06:23:27;;;;;;;;;;;14.80;99.90;;;;;;5065209;28;20154;-74
2022/05/25 06:25:53;;;;;;;;;;;14.40;99.90;;;;;;5053133;28;20051;-74
2022/05/25 06:28:19;;;;;;;;;;;15.10;99.90;;;;;;5053164;28;19935;-74
2022/05/25 06:30:44;;;;;;;;;;;15.00;99.90;;;;;;5053574;28;19958;-74
2022/05/25 06:33:10;;;;;;;;;;;14.80;99.90;;;;;;5052157;28;19915;-74
2022/05/25 06:35:36;;;;;;;;;;;14.20;99.90;;;;;;5052340;28;19909;-74
2022/05/25 06:38:02;;;;;;;;;;;14.00;99.90;;;;;;5053089;28;19936;-74
2022/05/25 06:40:28;;;;;;;;;;;14.00;99.90;;;;;;5052739;28;19916;-74
2022/05/25 06:42:53;;;;;;;;;;;14.00;99.90;;;;;;5054034;28;20286;-74
2022/05/25 06:45:19;;;;;;;;;;;14.20;99.90;;;;;;5050436;28;19912;-74
2022/05/25 06:47:44;;;;;;;;;;;14.30;99.90;;;;;;5060024;28;19913;-74
2022/05/25 06:50:10;;;;;;;;;;;15.30;99.90;;;;;;5050116;28;19975;-74
2022/05/25 06:52:36;;;;;;;;;;;15.80;98.80;;;;;;5051142;28;19935;-74
2022/05/25 06:55:02;;;;;;;;;;;15.00;99.90;;;;;;5044440;28;19917;-74
2022/05/25 06:57:28;;;;;;;;;;;15.60;99.90;;;;;;5050186;28;19915;-74
2022/05/25 06:59:54;;;;;;;;;;;16.40;98.60;;;;;;5052063;28;19916;-74
2022/05/25 07:02:19;;;;;;;;;;;17.60;95.80;;;;;;5053137;28;19909;-74
2022/05/25 07:04:45;;;;;;;;;;;18.40;94.90;;;;;;5052215;28;19995;-74
2022/05/25 07:07:10;;;;;;;;;;;17.80;93.60;;;;;;5053272;28;19909;-74
2022/05/25 07:09:39;;;;;;;;;;;17.90;92.50;;;;;;5053190;28;19913;-74
2022/05/25 07:12:05;;;;;;;;;;;18.60;90.90;;;;;;5052752;28;20431;-74
2022/05/25 07:14:31;;;;;;;;;;;18.30;91.20;;;;;;5052609;28;19909;-74
2022/05/25 07:16:59;;;;;;;;;;;18.70;91.70;;;;;;5054206;28;19920;-74
2022/05/25 07:19:24;;;;;;;;;;;19.10;88.20;;;;;;5054209;28;19940;-74
2022/05/25 07:21:50;;;;;;;;;;;19.20;91.40;;;;;;5052101;28;19916;-73
2022/05/25 07:24:16;;;;;;;;;;;19.70;88.00;;;;;;5052064;28;19917;-74
2022/05/25 07:26:42;;;;;;;;;;;20.10;88.80;;;;;;5056001;28;19912;-74
2022/05/25 07:29:07;;;;;;;;;;;20.20;85.60;;;;;;5055710;28;19915;-74
2022/05/25 07:31:39;;;;;;;;;;;20.50;84.40;;;;;;5055720;28;20492;-74
2022/05/25 07:34:07;;;;;;;;;;;20.30;85.30;;;;;;5054768;28;20364;-74
2022/05/25 07:36:34;;;;;;;;;;;20.30;81.40;;;;;;5055266;28;19909;-74
2022/05/25 07:39:02;;;;;;;;;;;21.10;81.80;;;;;;5055174;28;19921;-74
2022/05/25 07:41:28;;;;;;;;;;;19.90;81.70;;;;;;5055369;28;19971;-74
2022/05/25 07:43:57;;;;;;;;;;;19.30;86.40;;;;;;5068506;28;20011;-75
2022/05/25 07:46:27;;;;;;;;;;;19.20;84.20;;;;;;5061105;28;19916;-74
2022/05/25 07:48:52;;;;;;;;;;;20.40;82.30;;;;;;5052537;28;20270;-75
2022/05/25 07:51:18;;;;;;;;;;;20.40;82.50;;;;;;5062620;28;19909;-75
2022/05/25 07:53:56;;;;;;;;;;;21.60;80.60;;;;;;5054733;28;19912;-74
2022/05/25 07:56:22;;;;;;;;;;;20.80;79.40;;;;;;5055751;28;19959;-75
2022/05/25 07:58:48;;;;;;;;;;;19.90;82.40;;;;;;5056873;28;19913;-74
2022/05/25 08:01:15;;;;;;;;;;;19.20;82.80;;;;;;5057764;28;19913;-75
2022/05/25 08:06:25;;;;;;;;;;;18.70;82.70;;;;;;5061880;28;19963;-74
2022/05/25 08:08:51;;;;;;;;;;;18.00;88.30;;;;;;5054872;28;19909;-75
2022/05/25 08:11:17;;;;;;;;;;;17.70;84.90;;;;;;5054972;28;19916;-75
2022/05/25 08:13:45;;;;;;;;;;;18.60;89.10;;;;;;5064912;28;19908;-75
2022/05/25 08:16:12;;;;;;;;;;;18.70;86.70;;;;;;5064085;28;19909;-75
2022/05/25 08:18:37;;;;;;;;;;;18.10;85.30;;;;;;5055050;28;20370;-75
2022/05/25 08:21:04;;;;;;;;;;;20.60;85.00;;;;;;5054955;28;19916;-75
2022/05/25 08:23:29;;;;;;;;;;;20.30;78.80;;;;;;5054045;28;19916;-76
2022/05/25 08:25:55;;;;;;;;;;;20.90;82.50;;;;;;5054996;28;19917;-76
2022/05/25 08:28:21;;;;;;;;;;;22.60;78.00;;;;;;5053012;28;19913;-74
2022/05/25 08:30:46;;;;;;;;;;;20.80;75.70;;;;;;5054503;28;20401;-75
2022/05/25 08:33:15;;;;;;;;;;;19.60;81.30;;;;;;5053683;28;20389;-75
2022/05/25 08:35:41;;;;;;;;;;;20.90;81.10;;;;;;5057101;28;19955;-75
2022/05/25 08:38:06;;;;;;;;;;;21.70;76.90;;;;;;5069371;28;19989;-75
2022/05/25 08:40:32;;;;;;;;;;;23.30;79.60;;;;;;5066140;28;19947;-75
2022/05/25 08:43:03;;;;;;;;;;;23.40;75.70;;;;;;5054007;28;20412;-75
2022/05/25 08:45:52;;;;;;;;;;;21.90;74.00;;;;;;5052506;28;19931;-76
2022/05/25 08:48:19;;;;;;;;;;;22.20;71.80;;;;;;5052980;28;19999;-74
2022/05/25 08:50:49;;;;;;;;;;;22.90;73.80;;;;;;5065338;28;20303;-74
2022/05/25 08:53:16;;;;;;;;;;;24.00;75.00;;;;;;5053533;28;20194;-74
2022/05/25 08:55:45;;;;;;;;;;;24.40;74.20;;;;;;5053980;28;19909;-75
2022/05/25 08:58:11;;;;;;;;;;;24.80;73.80;;;;;;5054241;28;19937;-74
2022/05/25 09:00:38;;;;;;;;;;;26.20;72.90;;;;;;5053966;28;19909;-74
2022/05/25 09:03:04;;;;;;;;;;;25.00;67.10;;;;;;5052474;28;20374;-74
2022/05/25 09:05:34;;;;;;;;;;;24.20;72.20;;;;;;5056223;28;19951;-74
2022/05/25 09:08:02;;;;;;;;;;;25.70;69.60;;;;;;5052976;28;19921;-74
2022/05/25 09:10:29;;;;;;;;;;;24.10;68.40;;;;;;5051578;28;20290;-73
2022/05/25 09:12:59;;;;;;;;;;;23.70;66.50;;;;;;5053588;28;19913;-75
2022/05/25 09:15:30;;;;;;;;;;;21.30;73.60;;;;;;5051734;28;19924;-75
2022/05/25 09:18:01;;;;;;;;;;;22.00;80.00;;;;;;5073317;28;19913;-75
2022/05/25 09:20:36;;;;;;;;;;;20.90;73.80;;;;;;5072628;28;19987;-74
2022/05/25 09:23:02;;;;;;;;;;;19.90;77.70;;;;;;5072500;28;19966;-73
2022/05/25 09:25:28;;;;;;;;;;;19.90;82.30;;;;;;5070676;28;19920;-75
2022/05/25 09:28:07;;;;;;;;;;;19.70;83.80;;;;;;5072717;28;19909;-75
2022/05/25 09:30:35;;;;;;;;;;;20.00;85.50;;;;;;5072255;28;19920;-75
2022/05/25 09:33:17;;;;;;;;;;;20.00;81.40;;;;;;5067267;28;19916;-75
2022/05/25 09:35:48;;;;;;;;;;;19.90;80.20;;;;;;5060951;28;20350;-75
2022/05/25 09:38:15;;;;;;;;;;;20.00;79.00;;;;;;5054643;28;19973;-75
2022/05/25 09:40:44;;;;;;;;;;;20.80;80.80;;;;;;5053013;28;19916;-74
2022/05/25 09:43:12;;;;;;;;;;;21.60;79.80;;;;;;5052462;28;20172;-77
2022/05/25 09:45:41;;;;;;;;;;;20.30;75.10;;;;;;5051995;28;20621;-76
2022/05/25 09:48:14;;;;;;;;;;;21.40;84.80;;;;;;5051871;28;19908;-76
2022/05/25 09:50:45;;;;;;;;;;;21.00;76.30;;;;;;5051959;28;19917;-76
2022/05/25 09:53:12;;;;;;;;;;;20.70;83.00;;;;;;5052300;28;20378;-74
2022/05/25 09:55:46;;;;;;;;;;;20.40;83.10;;;;;;5046781;28;19963;-77
2022/05/25 09:58:21;;;;;;;;;;;21.90;78.70;;;;;;5047910;28;19908;-74
2022/05/25 10:00:58;;;;;;;;;;;21.60;74.80;;;;;;5051247;28;19948;-77
2022/05/25 10:03:34;;;;;;;;;;;20.80;77.30;;;;;;5053423;28;19909;-76
2022/05/25 10:06:01;;;;;;;;;;;20.10;80.60;;;;;;5052109;28;19913;-76
2022/05/25 10:08:37;;;;;;;;;;;20.20;80.60;;;;;;5052598;28;20019;-76
2022/05/25 10:11:27;;;;;;;;;;;19.90;80.60;;;;;;5052521;28;20392;-76
2022/05/25 10:13:55;;;;;;;;;;;20.30;78.80;;;;;;5051995;28;19955;-73
2022/05/25 10:16:22;;;;;;;;;;;20.00;74.10;;;;;;5050773;28;20007;-75
2022/05/25 10:18:48;;;;;;;;;;;20.40;79.30;;;;;;5052475;28;19909;-75
2022/05/25 10:21:25;;;;;;;;;;;21.20;83.10;;;;;;5051307;28;19916;-72
2022/05/25 10:23:51;;;;;;;;;;;20.90;80.00;;;;;;5050712;28;19909;-75
2022/05/25 10:26:23;;;;;;;;;;;19.60;76.10;;;;;;5052620;28;20340;-75
2022/05/25 10:28:54;;;;;;;;;;;19.30;83.70;;;;;;5051698;28;19996;-75
2022/05/25 10:37:00;;;;;;;;;;;19.10;83.10;;;;;;5048891;28;19978;-75
2022/05/25 10:39:28;;;;;;;;;;;19.20;83.40;;;;;;5051677;28;20344;-74
2022/05/25 10:41:58;;;;;;;;;;;19.20;83.80;;;;;;5050954;28;20420;-76
2022/05/25 10:44:25;;;;;;;;;;;19.20;82.20;;;;;;5051166;28;20027;-76
2022/05/25 10:46:55;;;;;;;;;;;19.30;85.70;;;;;;5050872;28;19908;-77
2022/05/25 10:49:24;;;;;;;;;;;20.60;80.70;;;;;;5053170;28;20359;-77
2022/05/25 10:51:52;;;;;;;;;;;21.30;80.30;;;;;;5059506;28;19924;-76
2022/05/25 10:54:51;;;;;;;;;;;20.20;74.50;;;;;;5056477;28;19951;-77
2022/05/25 10:57:32;;;;;;;;;;;20.00;80.60;;;;;;5051497;28;19909;-76
2022/05/25 11:00:05;;;;;;;;;;;22.20;82.10;;;;;;5051533;28;19909;-77
2022/05/25 11:02:37;;;;;;;;;;;24.50;74.00;;;;;;5050670;28;19916;-76
2022/05/25 11:05:05;;;;;;;;;;;24.70;76.90;;;;;;5055024;28;19913;-76
2022/05/25 11:07:35;;;;;;;;;;;23.20;74.40;;;;;;5056340;28;19912;-76
2022/05/25 11:10:09;;;;;;;;;;;22.20;70.80;;;;;;5051389;28;19909;-76
2022/05/25 11:12:54;;;;;;;;;;;21.90;68.70;;;;;;5050473;28;20314;-76
2022/05/25 11:15:28;;;;;;;;;;;21.90;76.30;;;;;;5051211;28;19948;-76
2022/05/25 11:18:02;;;;;;;;;;;23.00;71.40;;;;;;5050984;28;20325;-76
2022/05/25 11:20:46;;;;;;;;;;;24.30;69.80;;;;;;5052939;28;19932;-76
2022/05/25 11:23:15;;;;;;;;;;;23.70;63.90;;;;;;5069801;28;19909;-75
2022/05/25 11:25:52;;;;;;;;;;;22.20;70.20;;;;;;5044628;28;19912;-75
2022/05/25 11:28:23;;;;;;;;;;;22.80;70.20;;;;;;5051749;28;19909;-75
2022/05/25 11:30:55;;;;;;;;;;;24.50;67.70;;;;;;5051249;28;19909;-75
2022/05/25 11:33:26;;;;;;;;;;;25.30;63.70;;;;;;5049888;28;19909;-76
2022/05/25 11:36:02;;;;;;;;;;;24.00;68.00;;;;;;5049236;28;20288;-75
2022/05/25 11:38:33;;;;;;;;;;;22.30;68.10;;;;;;5051370;28;19924;-75
2022/05/25 11:41:05;;;;;;;;;;;20.70;72.00;;;;;;5051064;28;19916;-75
2022/05/25 11:43:30;;;;;;;;;;;20.40;71.60;;;;;;5050026;28;20381;-75
2022/05/25 11:45:56;;;;;;;;;;;20.50;72.80;;;;;;5051224;28;19913;-75
2022/05/25 11:48:34;;;;;;;;;;;20.30;73.20;;;;;;5044905;28;19916;-75
2022/05/25 11:51:02;;;;;;;;;;;20.20;74.90;;;;;;5055517;28;20306;-75
2022/05/25 11:53:33;;;;;;;;;;;20.20;75.90;;;;;;5050025;28;19963;-74
2022/05/25 11:56:02;;;;;;;;;;;19.80;74.70;;;;;;5051582;28;19909;-75
2022/05/25 11:58:30;;;;;;;;;;;20.10;78.50;;;;;;5045260;28;19936;-76
2022/05/25 12:01:04;;;;;;;;;;;20.30;74.90;;;;;;5043729;28;20007;-75
2022/05/25 12:03:32;;;;;;;;;;;21.10;77.50;;;;;;5049381;28;19920;-76
2022/05/25 12:06:19;;;;;;;;;;;22.80;68.00;;;;;;5055259;28;20292;-75
2022/05/25 12:08:52;;;;;;;;;;;23.40;73.70;;;;;;5051210;28;19917;-76
2022/05/25 12:11:36;;;;;;;;;;;24.20;66.50;;;;;;5051669;28;19927;-75
2022/05/25 12:14:10;;;;;;;;;;;24.00;66.90;;;;;;5054055;28;20010;-76
2022/05/25 12:16:40;;;;;;;;;;;23.90;62.00;;;;;;5054810;28;19909;-75
2022/05/25 12:19:10;;;;;;;;;;;24.30;67.80;;;;;;5054613;28;19912;-76
2022/05/25 12:21:41;;;;;;;;;;;24.90;61.40;;;;;;5054151;28;19917;-76
2022/05/25 12:24:09;;;;;;;;;;;25.40;62.80;;;;;;5053916;28;19962;-76
2022/05/25 12:26:37;;;;;;;;;;;27.10;57.80;;;;;;5054655;28;19909;-77
2022/05/25 12:29:08;;;;;;;;;;;28.30;55.90;;;;;;5053968;28;19908;-75
2022/05/25 12:31:35;;;;;;;;;;;25.80;60.00;;;;;;5057030;28;19989;-76
2022/05/25 12:34:01;;;;;;;;;;;23.40;54.50;;;;;;5054062;28;20512;-76
2022/05/25 12:36:27;;;;;;;;;;;22.20;68.00;;;;;;5068665;28;19931;-74
2022/05/25 12:38:53;;;;;;;;;;;25.70;64.80;;;;;;5060277;28;20127;-74
2022/05/25 12:41:23;;;;;;;;;;;29.70;56.60;;;;;;5059900;28;19995;-73
2022/05/25 12:43:51;;;;;;;;;;;29.60;48.70;;;;;;5055357;28;20285;-75
2022/05/25 12:49:34;;;;;;;;;;;26.10;53.00;;;;;;5058289;28;19924;-75
2022/05/25 12:51:59;;;;;;;;;;;23.50;59.10;;;;;;5064395;28;19908;-74
2022/05/25 12:54:28;;;;;;;;;;;24.30;58.60;;;;;;5071749;28;19981;-74
2022/05/25 12:56:55;;;;;;;;;;;22.60;60.90;;;;;;5076096;28;20242;-75
2022/05/25 12:59:32;;;;;;;;;;;21.70;63.70;;;;;;5077179;28;19923;-75
2022/05/25 13:02:29;;;;;;;;;;;27.00;59.10;;;;;;5073407;28;19920;-75
2022/05/25 13:04:55;;;;;;;;;;;24.40;54.80;;;;;;5051986;28;20063;-75
2022/05/25 13:07:39;;;;;;;;;;;23.20;56.10;;;;;;5054109;28;19916;-74
2022/05/25 13:10:19;;;;;;;;;;;21.30;63.90;;;;;;5054081;28;19980;-75
2022/05/25 13:12:47;;;;;;;;;;;20.50;66.70;;;;;;5053470;28;19952;-75
2022/05/25 13:15:17;;;;;;;;;;;20.90;62.20;;;;;;5053468;28;19931;-75
2022/05/25 13:17:47;;;;;;;;;;;25.10;57.20;;;;;;5054234;28;20282;-75
2022/05/25 13:20:15;;;;;;;;;;;27.30;54.80;;;;;;5053860;28;19908;-75
2022/05/25 13:22:41;;;;;;;;;;;22.20;56.10;;;;;;5051638;28;19956;-74
2022/05/25 13:25:26;;;;;;;;;;;20.90;59.10;;;;;;5052245;28;19986;-75
2022/05/25 13:28:02;;;;;;;;;;;25.70;59.80;;;;;;5053985;28;19992;-75
2022/05/25 13:30:34;;;;;;;;;;;25.90;59.20;;;;;;5058215;28;19998;-76
2022/05/25 13:33:01;;;;;;;;;;;29.50;49.80;;;;;;5055778;28;19908;-76
2022/05/25 13:35:33;;;;;;;;;;;30.40;49.00;;;;;;5060482;28;19908;-76
2022/05/25 13:38:11;;;;;;;;;;;28.40;45.50;;;;;;5053740;28;20298;-76
2022/05/25 13:40:42;;;;;;;;;;;30.70;47.40;;;;;;5054182;28;20003;-76
2022/05/25 13:43:10;;;;;;;;;;;26.00;47.60;;;;;;5053537;28;19916;-74
2022/05/25 13:45:39;;;;;;;;;;;22.80;57.80;;;;;;5052990;28;19975;-75
2022/05/25 13:48:09;;;;;;;;;;;21.40;58.40;;;;;;5051105;28;19913;-75
2022/05/25 13:50:37;;;;;;;;;;;22.50;54.90;;;;;;5053037;28;19916;-75
2022/05/25 13:53:06;;;;;;;;;;;26.50;56.30;;;;;;5052353;28;19909;-75
2022/05/25 13:55:34;;;;;;;;;;;29.90;48.40;;;;;;5066258;28;19912;-77
2022/05/25 13:58:01;;;;;;;;;;;27.80;47.10;;;;;;5069681;28;20062;-75
2022/05/25 14:00:26;;;;;;;;;;;25.50;57.90;;;;;;5068114;28;19976;-76
2022/05/25 14:02:58;;;;;;;;;;;27.00;51.70;;;;;;5058776;28;19964;-76
2022/05/25 14:05:33;;;;;;;;;;;28.40;47.60;;;;;;5048171;28;19913;-76
2022/05/25 14:08:17;;;;;;;;;;;27.80;50.30;;;;;;5047542;28;19926;-75
2022/05/25 14:10:54;;;;;;;;;;;24.40;50.70;;;;;;5052936;28;19952;-75
2022/05/25 14:13:22;;;;;;;;;;;22.10;59.30;;;;;;5051378;28;19909;-76
2022/05/25 14:15:53;;;;;;;;;;;25.20;55.10;;;;;;5052688;28;19916;-76
2022/05/25 14:18:18;;;;;;;;;;;28.90;50.50;;;;;;5053256;28;19912;-75
2022/05/25 14:20:44;;;;;;;;;;;28.00;51.20;;;;;;5052918;28;20486;-76
2022/05/25 14:23:10;;;;;;;;;;;28.60;45.00;;;;;;5051768;28;19909;-76
2022/05/25 14:25:36;;;;;;;;;;;28.70;47.70;;;;;;5051721;28;19921;-76
2022/05/25 14:28:04;;;;;;;;;;;27.30;47.60;;;;;;5052308;28;19922;-76
2022/05/25 14:30:31;;;;;;;;;;;28.70;47.20;;;;;;5051144;28;19908;-75
2022/05/25 14:33:17;;;;;;;;;;;25.00;51.00;;;;;;5051629;28;19909;-76
2022/05/25 14:35:46;;;;;;;;;;;22.50;57.40;;;;;;5051643;28;19913;-75
2022/05/25 14:38:12;;;;;;;;;;;21.40;60.00;;;;;;5052392;28;20155;-76
2022/05/25 14:40:46;;;;;;;;;;;22.30;60.00;;;;;;5052508;28;19909;-75
2022/05/25 14:43:11;;;;;;;;;;;27.20;53.70;;;;;;5051311;28;19909;-76
2022/05/25 14:45:37;;;;;;;;;;;24.30;55.80;;;;;;5052131;28;19924;-75
2022/05/25 14:48:02;;;;;;;;;;;27.70;50.00;;;;;;5049529;28;20277;-75
2022/05/25 14:50:31;;;;;;;;;;;24.00;56.20;;;;;;5055065;28;20016;-75